Sigas Ingrid — VRCQ6 — position and weather

sailwx.info

Track history (hours):
 
Tides and Currents Weather Stations Pressure Air Temp Water Temp Dewpoint Dewpoint Depression Visibility Wind Speed Wind Dir Waves Ship Positions

Sigas Ingrid

Last reported at 2014-Dec-19 05:17 UTC. Time now 2014-Dec-21 10:46 UTC.
Position N 41°16' E 029°11'.

Length 100 m; draft 4.8 m.

Type: Ship (hazmat cat B). MMSI: 477658800.

Date/timePositionNaut miles runAvg speedWind from/ knotsBaromVisibWave heightAir tempDewpointWater temp
2014-Dec-19 05:17N 41°16' E 029°11'16 9.4
2014-Dec-19 03:33N 41°02' E 029°00'9 9.2
2014-Dec-19 02:32N 40°52' E 029°01'6 5.4
2014-Dec-19 01:21N 40°46' E 028°59'0 0.4
2014-Dec-19 00:33N 40°46' E 028°59'0 0.4
2014-Dec-18 23:27N 40°45' E 028°59'0 0.4
2014-Dec-18 22:33N 40°45' E 028°59'1 0.4
2014-Dec-18 21:15N 40°45' E 028°58'0 0.5
2014-Dec-18 20:21N 40°45' E 028°57'1 0.6
2014-Dec-18 19:27N 40°45' E 028°57'1 0.6
2014-Dec-18 17:27N 40°46' E 028°56'3 3.5
2014-Dec-18 16:33N 40°48' E 028°52'10711.4
2014-Dec-18 07:07N 40°19' E 026°36'14710.1
2014-Dec-17 16:32N 38°17' E 024°50'2412.1
2014-Dec-17 14:33N 37°55' E 024°37'1211.6
2014-Dec-17 13:33N 37°44' E 024°32'1211.9
2014-Dec-17 12:33N 37°34' E 024°24'1212.3
2014-Dec-17 11:33N 37°24' E 024°15'1211.9
2014-Dec-17 10:33N 37°15' E 024°05'1212.3
2014-Dec-17 09:33N 37°05' E 023°56'1212.2
2014-Dec-17 08:33N 36°55' E 023°47'  
Track history (hours):
 
Tides and Currents Weather Stations Pressure Air Temp Water Temp Dewpoint Dewpoint Depression Visibility Wind Speed Wind Dir Waves Ship Positions

Sigas Ingrid

Last reported at 2014-Dec-19 05:17 UTC. Time now 2014-Dec-21 10:46 UTC.
Position N 41°16' E 029°11'.

Length 100 m; draft 4.8 m.

Type: Ship (hazmat cat B). MMSI: 477658800.

Date/timePositionNaut miles runAvg speedWind from/ knotsBaromVisibWave heightAir tempDewpointWater temp
2014-Dec-19 05:17N 41°16' E 029°11'16 9.4
2014-Dec-19 03:33N 41°02' E 029°00'9 9.2
2014-Dec-19 02:32N 40°52' E 029°01'6 5.4
2014-Dec-19 01:21N 40°46' E 028°59'0 0.4
2014-Dec-19 00:33N 40°46' E 028°59'0 0.4
2014-Dec-18 23:27N 40°45' E 028°59'0 0.4
2014-Dec-18 22:33N 40°45' E 028°59'1 0.4
2014-Dec-18 21:15N 40°45' E 028°58'0 0.5
2014-Dec-18 20:21N 40°45' E 028°57'1 0.6
2014-Dec-18 19:27N 40°45' E 028°57'1 0.6
2014-Dec-18 17:27N 40°46' E 028°56'3 3.5
2014-Dec-18 16:33N 40°48' E 028°52'10711.4
2014-Dec-18 07:07N 40°19' E 026°36'14710.1
2014-Dec-17 16:32N 38°17' E 024°50'2412.1
2014-Dec-17 14:33N 37°55' E 024°37'1211.6
2014-Dec-17 13:33N 37°44' E 024°32'1211.9
2014-Dec-17 12:33N 37°34' E 024°24'1212.3
2014-Dec-17 11:33N 37°24' E 024°15'1211.9
2014-Dec-17 10:33N 37°15' E 024°05'1212.3
2014-Dec-17 09:33N 37°05' E 023°56'1212.2
2014-Dec-17 08:33N 36°55' E 023°47'  

Dump ship's entire track history